EZY74ZM EGKK-LOWI
Flight info
| Callsign | EZY74ZM |
|---|---|
| Flight time | 1h 22m |
| Altitude | 37000 |
| Route | DVR L9 KONAN DCT KOK UL607 FERDI DCT REMBA DCT LIRSU DCT KRH DCT TEDGO DCT BATUB M738 MADEB MADEB1B |
| Aircraft | A320/M-SDE2E3FGHIJ1RWXYZ/LB1 |
Departure
| Time | 2026-05-04 10:02 |
|---|---|
| Airport | London Gatwick Airport (EGKK) |
Arrival
| Time | 2026-05-04 11:24 |
|---|---|
| Airport | Innsbruck Airport (LOWI) |
| Time | Latitude | Longitude | Altitude | Speed | Heading |
|---|---|---|---|---|---|
| 2026-05-04 09:27 | 51.15584 | -0.17681 | 213 ft | 0 kts | 347° |
| 2026-05-04 09:46 | 51.15568 | -0.17676 | 214 ft | 4 kts | 346° |
| 2026-05-04 09:47 | 51.15543 | -0.17663 | 206 ft | 4 kts | 334° |
| 2026-05-04 09:47 | 51.15524 | -0.17641 | 206 ft | 4 kts | 284° |
| 2026-05-04 09:49 | 51.15522 | -0.17628 | 216 ft | 0 kts | 257° |
| 2026-05-04 09:51 | 51.15441 | -0.18214 | 208 ft | 12 kts | 256° |
| 2026-05-04 09:51 | 51.15374 | -0.18271 | 213 ft | 13 kts | 168° |
| 2026-05-04 09:51 | 51.15284 | -0.18237 | 207 ft | 14 kts | 167° |
| 2026-05-04 09:51 | 51.15194 | -0.18257 | 208 ft | 14 kts | 233° |
| 2026-05-04 09:52 | 51.15172 | -0.18414 | 212 ft | 15 kts | 256° |
| 2026-05-04 09:52 | 51.15151 | -0.18579 | 203 ft | 15 kts | 258° |
| 2026-05-04 09:52 | 51.15133 | -0.18740 | 203 ft | 14 kts | 265° |
| 2026-05-04 09:52 | 51.15112 | -0.18881 | 210 ft | 12 kts | 258° |
| 2026-05-04 09:53 | 51.15094 | -0.19001 | 206 ft | 10 kts | 257° |
| 2026-05-04 09:53 | 51.15079 | -0.19109 | 204 ft | 10 kts | 257° |
| 2026-05-04 09:53 | 51.15061 | -0.19237 | 204 ft | 15 kts | 257° |
| 2026-05-04 09:53 | 51.15033 | -0.19434 | 206 ft | 21 kts | 256° |
| 2026-05-04 09:54 | 51.14993 | -0.19697 | 209 ft | 27 kts | 257° |
| 2026-05-04 09:54 | 51.14969 | -0.19893 | 212 ft | 17 kts | 259° |
| 2026-05-04 09:54 | 51.14946 | -0.20072 | 207 ft | 16 kts | 258° |
| 2026-05-04 09:54 | 51.14923 | -0.20230 | 207 ft | 14 kts | 257° |
| 2026-05-04 09:55 | 51.14903 | -0.20378 | 203 ft | 16 kts | 258° |
| 2026-05-04 09:55 | 51.14881 | -0.20543 | 205 ft | 14 kts | 258° |
| 2026-05-04 09:55 | 51.14861 | -0.20686 | 206 ft | 12 kts | 258° |
| 2026-05-04 09:55 | 51.14844 | -0.20811 | 206 ft | 11 kts | 258° |
| 2026-05-04 09:56 | 51.14829 | -0.20921 | 211 ft | 12 kts | 257° |
| 2026-05-04 09:56 | 51.14809 | -0.21061 | 209 ft | 12 kts | 256° |
| 2026-05-04 09:56 | 51.14784 | -0.21181 | 212 ft | 11 kts | 248° |
| 2026-05-04 09:56 | 51.14768 | -0.21296 | 207 ft | 12 kts | 259° |
| 2026-05-04 09:57 | 51.14728 | -0.21399 | 210 ft | 11 kts | 199° |
| 2026-05-04 09:57 | 51.14666 | -0.21364 | 216 ft | 9 kts | 137° |
| 2026-05-04 09:57 | 51.14650 | -0.21342 | 209 ft | 4 kts | 146° |
| 2026-05-04 09:57 | 51.14625 | -0.21327 | 207 ft | 0 kts | 165° |
| 2026-05-04 09:58 | 51.14624 | -0.21327 | 207 ft | 0 kts | 165° |
| 2026-05-04 10:00 | 51.14776 | -0.19327 | 207 ft | 138 kts | 78° |
| 2026-05-04 10:00 | 51.15018 | -0.17633 | 449 ft | 162 kts | 75° |
| 2026-05-04 10:02 | 51.16858 | -0.02141 | 3999 ft | 259 kts | 91° |
| 2026-05-04 10:04 | 51.16515 | 0.19132 | 9641 ft | 291 kts | 91° |
| 2026-05-04 10:04 | 51.16528 | 0.22383 | 10378 ft | 296 kts | 91° |
| 2026-05-04 10:04 | 51.16546 | 0.25684 | 11123 ft | 299 kts | 91° |
| 2026-05-04 10:04 | 51.16565 | 0.29011 | 11861 ft | 302 kts | 91° |
| 2026-05-04 10:05 | 51.16580 | 0.32379 | 12602 ft | 306 kts | 91° |
| 2026-05-04 10:05 | 51.16587 | 0.35789 | 13335 ft | 309 kts | 91° |
| 2026-05-04 10:05 | 51.16591 | 0.39228 | 14018 ft | 313 kts | 91° |
| 2026-05-04 10:05 | 51.16593 | 0.42709 | 14651 ft | 316 kts | 91° |
| 2026-05-04 10:06 | 51.16593 | 0.46226 | 15280 ft | 319 kts | 91° |
| 2026-05-04 10:06 | 51.16593 | 0.49785 | 15832 ft | 326 kts | 91° |
| 2026-05-04 10:06 | 51.16591 | 0.53515 | 15961 ft | 346 kts | 91° |
| 2026-05-04 10:08 | 51.16560 | 0.78168 | 18909 ft | 383 kts | 92° |
| 2026-05-04 10:08 | 51.16549 | 0.82424 | 19428 ft | 386 kts | 92° |
| 2026-05-04 10:08 | 51.16536 | 0.86709 | 19943 ft | 388 kts | 92° |
| 2026-05-04 10:08 | 51.16518 | 0.91033 | 20456 ft | 391 kts | 92° |
| 2026-05-04 10:09 | 51.16499 | 0.95378 | 20953 ft | 394 kts | 92° |
| 2026-05-04 10:09 | 51.16479 | 0.99763 | 21371 ft | 399 kts | 92° |
| 2026-05-04 10:09 | 51.16458 | 1.04203 | 21815 ft | 403 kts | 92° |
| 2026-05-04 10:09 | 51.16437 | 1.08688 | 22269 ft | 406 kts | 92° |
| 2026-05-04 10:10 | 51.16416 | 1.13209 | 22728 ft | 409 kts | 92° |
| 2026-05-04 10:10 | 51.16390 | 1.17752 | 23182 ft | 412 kts | 93° |
| 2026-05-04 10:10 | 51.16360 | 1.22330 | 23614 ft | 415 kts | 93° |
| 2026-05-04 10:10 | 51.16328 | 1.26956 | 23983 ft | 418 kts | 93° |
| 2026-05-04 10:11 | 51.16295 | 1.31597 | 24366 ft | 421 kts | 93° |
| 2026-05-04 10:11 | 51.16257 | 1.36275 | 24746 ft | 423 kts | 94° |
| 2026-05-04 10:11 | 51.16140 | 1.40960 | 25116 ft | 424 kts | 96° |
| 2026-05-04 10:11 | 51.15935 | 1.45649 | 25446 ft | 426 kts | 98° |
| 2026-05-04 10:12 | 51.15679 | 1.50366 | 25790 ft | 428 kts | 99° |
| 2026-05-04 10:12 | 51.15403 | 1.55103 | 26175 ft | 430 kts | 99° |
| 2026-05-04 10:12 | 51.15129 | 1.59859 | 26517 ft | 432 kts | 99° |
| 2026-05-04 10:12 | 51.14867 | 1.64642 | 26880 ft | 434 kts | 99° |
| 2026-05-04 10:13 | 51.14621 | 1.69441 | 27238 ft | 436 kts | 98° |
| 2026-05-04 10:13 | 51.14382 | 1.74270 | 27591 ft | 438 kts | 98° |
| 2026-05-04 10:13 | 51.14144 | 1.79111 | 27943 ft | 440 kts | 99° |
| 2026-05-04 10:13 | 51.13904 | 1.83916 | 28289 ft | 442 kts | 99° |
| 2026-05-04 10:14 | 51.13658 | 1.88798 | 28638 ft | 443 kts | 99° |
| 2026-05-04 10:14 | 51.13404 | 1.93766 | 28926 ft | 446 kts | 99° |
| 2026-05-04 10:16 | 51.11537 | 2.28673 | 30880 ft | 459 kts | 100° |
| 2026-05-04 10:16 | 51.11255 | 2.33745 | 31115 ft | 461 kts | 100° |
| 2026-05-04 10:16 | 51.10974 | 2.38814 | 31411 ft | 460 kts | 100° |
| 2026-05-04 10:16 | 51.10692 | 2.43903 | 31676 ft | 461 kts | 100° |
| 2026-05-04 10:17 | 51.10408 | 2.48990 | 31961 ft | 462 kts | 100° |
| 2026-05-04 10:17 | 51.10120 | 2.54066 | 32270 ft | 461 kts | 101° |
| 2026-05-04 10:19 | 51.05310 | 2.88157 | 34401 ft | 450 kts | 112° |
| 2026-05-04 10:19 | 51.04438 | 2.92943 | 34595 ft | 451 kts | 112° |
| 2026-05-04 10:19 | 51.03564 | 2.97735 | 34823 ft | 451 kts | 112° |
| 2026-05-04 10:19 | 51.02687 | 3.02526 | 35059 ft | 451 kts | 112° |
| 2026-05-04 10:20 | 51.02108 | 3.05684 | 35218 ft | 451 kts | 112° |
| 2026-05-04 10:20 | 51.00933 | 3.12068 | 35515 ft | 451 kts | 111° |
| 2026-05-04 10:20 | 51.00348 | 3.15233 | 35678 ft | 450 kts | 111° |
| 2026-05-04 10:20 | 50.99465 | 3.20002 | 35904 ft | 450 kts | 111° |
| 2026-05-04 10:21 | 50.98568 | 3.24817 | 36125 ft | 450 kts | 111° |
| 2026-05-04 10:21 | 50.97693 | 3.29510 | 36340 ft | 449 kts | 111° |
| 2026-05-04 10:21 | 50.96804 | 3.34265 | 36492 ft | 450 kts | 111° |
| 2026-05-04 10:21 | 50.95911 | 3.39028 | 36667 ft | 450 kts | 111° |
| 2026-05-04 10:22 | 50.94126 | 3.48553 | 36978 ft | 450 kts | 111° |
| 2026-05-04 10:22 | 50.93236 | 3.53293 | 36992 ft | 449 kts | 111° |
| 2026-05-04 10:23 | 50.91441 | 3.62761 | 36993 ft | 448 kts | 111° |
| 2026-05-04 10:25 | 50.84211 | 4.00551 | 37008 ft | 449 kts | 111° |
| 2026-05-04 10:25 | 50.82380 | 4.09994 | 37010 ft | 449 kts | 112° |
| 2026-05-04 10:26 | 50.80535 | 4.19428 | 37028 ft | 449 kts | 112° |
| 2026-05-04 10:26 | 50.78692 | 4.28851 | 37021 ft | 449 kts | 112° |
| 2026-05-04 10:27 | 50.76849 | 4.38273 | 37025 ft | 448 kts | 112° |
| 2026-05-04 10:27 | 50.74997 | 4.47672 | 37032 ft | 448 kts | 112° |
| 2026-05-04 10:28 | 50.73131 | 4.57069 | 37038 ft | 448 kts | 112° |
| 2026-05-04 10:28 | 50.71256 | 4.66440 | 37026 ft | 448 kts | 112° |
| 2026-05-04 10:29 | 50.69372 | 4.75809 | 37012 ft | 448 kts | 112° |
| 2026-05-04 10:29 | 50.67479 | 4.85166 | 37011 ft | 448 kts | 112° |
| 2026-05-04 10:30 | 50.65349 | 4.94331 | 37012 ft | 442 kts | 120° |
| 2026-05-04 10:30 | 50.62715 | 5.03086 | 37014 ft | 442 kts | 120° |
| 2026-05-04 10:31 | 50.60077 | 5.11837 | 37016 ft | 442 kts | 120° |
| 2026-05-04 10:32 | 50.50771 | 5.42489 | 36992 ft | 445 kts | 121° |
| 2026-05-04 10:33 | 50.48089 | 5.51242 | 36998 ft | 445 kts | 121° |
| 2026-05-04 10:33 | 50.45405 | 5.59989 | 36983 ft | 445 kts | 121° |
| 2026-05-04 10:34 | 50.42707 | 5.68733 | 36988 ft | 446 kts | 121° |
| 2026-05-04 10:34 | 50.39998 | 5.77476 | 36987 ft | 446 kts | 121° |
| 2026-05-04 10:35 | 50.37280 | 5.86220 | 36989 ft | 446 kts | 121° |
| 2026-05-04 10:35 | 50.34559 | 5.94953 | 36992 ft | 446 kts | 121° |
| 2026-05-04 10:36 | 50.31833 | 6.03683 | 36971 ft | 446 kts | 121° |
| 2026-05-04 10:36 | 50.29099 | 6.12393 | 36979 ft | 446 kts | 121° |
| 2026-05-04 10:37 | 50.26356 | 6.21107 | 36982 ft | 446 kts | 121° |
| 2026-05-04 10:37 | 50.23605 | 6.29802 | 36988 ft | 446 kts | 121° |
| 2026-05-04 10:39 | 50.13915 | 6.54168 | 36980 ft | 437 kts | 135° |
| 2026-05-04 10:39 | 50.11954 | 6.57788 | 36994 ft | 437 kts | 135° |
| 2026-05-04 10:40 | 50.08035 | 6.65014 | 37005 ft | 437 kts | 135° |
| 2026-05-04 10:40 | 50.04121 | 6.72236 | 37007 ft | 437 kts | 135° |
| 2026-05-04 10:41 | 50.00197 | 6.79456 | 37005 ft | 436 kts | 135° |
| 2026-05-04 10:41 | 49.96280 | 6.86650 | 36981 ft | 436 kts | 135° |
| 2026-05-04 10:42 | 49.92355 | 6.93837 | 36993 ft | 436 kts | 135° |
| 2026-05-04 10:42 | 49.88416 | 7.01006 | 37010 ft | 436 kts | 135° |
| 2026-05-04 10:43 | 49.84479 | 7.08170 | 37017 ft | 436 kts | 135° |
| 2026-05-04 10:45 | 49.68689 | 7.36651 | 36998 ft | 436 kts | 135° |
| 2026-05-04 10:45 | 49.64734 | 7.43743 | 37001 ft | 436 kts | 135° |
| 2026-05-04 10:46 | 49.60774 | 7.50834 | 37004 ft | 436 kts | 135° |
| 2026-05-04 10:46 | 49.56821 | 7.57910 | 37006 ft | 436 kts | 136° |
| 2026-05-04 10:47 | 49.52853 | 7.64971 | 36989 ft | 436 kts | 136° |
| 2026-05-04 10:47 | 49.48880 | 7.72018 | 36991 ft | 436 kts | 136° |
| 2026-05-04 10:49 | 49.32952 | 8.00097 | 37013 ft | 435 kts | 136° |
| 2026-05-04 10:50 | 49.28961 | 8.07068 | 36994 ft | 435 kts | 136° |
| 2026-05-04 10:52 | 49.12948 | 8.34923 | 36998 ft | 436 kts | 136° |
| 2026-05-04 10:52 | 49.08925 | 8.41867 | 37001 ft | 437 kts | 136° |
| 2026-05-04 10:54 | 48.92967 | 8.69796 | 37009 ft | 438 kts | 134° |
| 2026-05-04 10:56 | 48.77349 | 8.98185 | 37003 ft | 438 kts | 134° |
| 2026-05-04 10:57 | 48.73420 | 9.05249 | 37001 ft | 438 kts | 135° |
| 2026-05-04 10:57 | 48.69479 | 9.12304 | 36999 ft | 439 kts | 135° |
| 2026-05-04 10:58 | 48.65529 | 9.19337 | 36985 ft | 439 kts | 134° |
| 2026-05-04 10:58 | 48.61067 | 9.25429 | 36988 ft | 429 kts | 152° |
| 2026-05-04 10:59 | 48.56647 | 9.28597 | 36992 ft | 420 kts | 166° |
| 2026-05-04 10:59 | 48.51098 | 9.31439 | 36998 ft | 421 kts | 165° |
| 2026-05-04 11:00 | 48.45551 | 9.34283 | 37000 ft | 421 kts | 165° |
| 2026-05-04 11:01 | 48.26048 | 9.44216 | 35507 ft | 424 kts | 166° |
| 2026-05-04 11:02 | 48.23268 | 9.45631 | 35003 ft | 420 kts | 165° |
| 2026-05-04 11:02 | 48.20509 | 9.47032 | 34518 ft | 416 kts | 166° |
| 2026-05-04 11:05 | 47.86572 | 9.72997 | 27908 ft | 373 kts | 148° |
| 2026-05-04 11:06 | 47.84483 | 9.75243 | 27477 ft | 369 kts | 148° |
| 2026-05-04 11:06 | 47.82409 | 9.77466 | 27058 ft | 366 kts | 148° |
| 2026-05-04 11:06 | 47.80350 | 9.79666 | 26629 ft | 363 kts | 148° |
| 2026-05-04 11:06 | 47.78307 | 9.81851 | 26212 ft | 361 kts | 148° |
| 2026-05-04 11:08 | 47.64263 | 9.96862 | 23006 ft | 352 kts | 148° |
| 2026-05-04 11:10 | 47.50602 | 10.11357 | 19915 ft | 339 kts | 147° |
| 2026-05-04 11:12 | 47.37101 | 10.24731 | 16937 ft | 327 kts | 152° |
| 2026-05-04 11:12 | 47.35161 | 10.26471 | 16532 ft | 326 kts | 148° |
| 2026-05-04 11:12 | 47.33461 | 10.28684 | 16137 ft | 330 kts | 134° |
| 2026-05-04 11:12 | 47.32236 | 10.31588 | 15722 ft | 338 kts | 116° |
| 2026-05-04 11:13 | 47.31597 | 10.34949 | 15310 ft | 343 kts | 104° |
| 2026-05-04 11:13 | 47.31139 | 10.38400 | 14877 ft | 343 kts | 104° |
| 2026-05-04 11:13 | 47.30674 | 10.41853 | 14477 ft | 342 kts | 104° |
| 2026-05-04 11:13 | 47.30205 | 10.45294 | 14054 ft | 344 kts | 105° |
| 2026-05-04 11:14 | 47.29730 | 10.48721 | 13742 ft | 340 kts | 105° |
| 2026-05-04 11:14 | 47.29262 | 10.52089 | 13575 ft | 330 kts | 105° |
| 2026-05-04 11:14 | 47.28810 | 10.55359 | 13425 ft | 323 kts | 105° |
| 2026-05-04 11:16 | 47.29631 | 10.77821 | 10927 ft | 316 kts | 89° |
| 2026-05-04 11:16 | 47.29793 | 10.81008 | 10436 ft | 308 kts | 88° |
| 2026-05-04 11:16 | 47.29949 | 10.84119 | 9950 ft | 300 kts | 87° |
| 2026-05-04 11:17 | 47.30097 | 10.87146 | 9449 ft | 292 kts | 88° |
| 2026-05-04 11:17 | 47.30239 | 10.90070 | 9000 ft | 282 kts | 88° |
| 2026-05-04 11:19 | 47.30688 | 11.08262 | 6169 ft | 213 kts | 113° |
| 2026-05-04 11:19 | 47.30115 | 11.10173 | 5840 ft | 197 kts | 117° |
| 2026-05-04 11:19 | 47.29543 | 11.11917 | 5546 ft | 182 kts | 118° |
| 2026-05-04 11:19 | 47.29009 | 11.13516 | 5262 ft | 168 kts | 117° |
| 2026-05-04 11:20 | 47.28507 | 11.15009 | 4990 ft | 158 kts | 116° |
| 2026-05-04 11:20 | 47.28031 | 11.16431 | 4748 ft | 152 kts | 116° |
| 2026-05-04 11:20 | 47.27559 | 11.17840 | 4482 ft | 154 kts | 117° |
| 2026-05-04 11:20 | 47.27086 | 11.19257 | 4238 ft | 154 kts | 118° |
| 2026-05-04 11:22 | 47.25505 | 11.29591 | 2487 ft | 150 kts | 83° |
| 2026-05-04 11:22 | 47.25694 | 11.31098 | 2251 ft | 151 kts | 85° |
| 2026-05-04 11:23 | 47.25837 | 11.32615 | 2031 ft | 148 kts | 86° |
| 2026-05-04 11:23 | 47.25981 | 11.34051 | 1891 ft | 127 kts | 79° |
| 2026-05-04 11:24 | 47.25936 | 11.35287 | 1904 ft | 1 kts | 172° |
| 2026-05-04 11:25 | 47.25929 | 11.35289 | 1904 ft | 0 kts | 172° |
| 2026-05-04 11:25 | 47.25913 | 11.35279 | 1904 ft | 3 kts | 219° |
| 2026-05-04 11:25 | 47.25902 | 11.35256 | 1896 ft | 2 kts | 237° |
| 2026-05-04 11:26 | 47.25884 | 11.35238 | 1898 ft | 1 kts | 197° |
| 2026-05-04 11:27 | 47.25841 | 11.35236 | 1898 ft | 0 kts | 171° |